Estación Meteorológica Peña el Pijo (Robertgarden) [ 11/19/19 11:56:16 CET ]

Fecha Hora Presion(HPa) Temp (°C) Humedad % Rocio (°C) Viento ( m/s) Direccion Lluvia 1Hora(mm) Lluvia 24H(mm) LLuvia Total(mm)
2019-Mar-24 01:01:45 1011.900 6.2 79 2.8         184.40
2019-Mar-24 02:01:42 1011.900 6.3 81 3.3         184.40
2019-Mar-24 03:03:07 1011.600 6.1 82 3.2         184.40
2019-Mar-24 04:01:56 1011.400 6.4 83 3.7         184.40
2019-Mar-24 05:01:51 1011.400 6.4 83 3.7         184.40
2019-Mar-24 06:01:36 1011.500 6.1 83 3.4         184.40
2019-Mar-24 07:01:18 1011.700 6.1 83 3.4         184.40
2019-Mar-24 08:01:32 1011.800 6.4 82 3.5         184.40
2019-Mar-24 09:01:43 1011.900 8.9 77 5.0         184.40
2019-Mar-24 10:01:45 1012.100 10.3 64 3.8         184.40
2019-Mar-24 11:01:39 1012.200 14.9 55 5.9         184.40
2019-Mar-24 12:01:49 1012.300 14.3 50 4.1         184.40
2019-Mar-24 13:01:34 1011.700 16.1 40 2.5 3.8 N     184.40
2019-Mar-24 14:01:47 1011.100 15.9 41 2.6         184.40
2019-Mar-24 15:01:58 1010.900 16.8 41 3.4 2.6 E     184.40
2019-Mar-24 16:01:42 1010.600 15.0 43 2.5         184.40
2019-Mar-24 17:01:51 1010.500 13.9 45 2.1         184.40
2019-Mar-24 18:01:49 1010.800 13.4 47 2.2         184.40
2019-Mar-24 19:02:09 1010.800 11.9 51 2.1         184.40
2019-Mar-24 20:02:20 1011.100 10.4 54 1.5         184.40
2019-Mar-24 21:01:43 1011.400 9.2 58 1.4         184.40
2019-Mar-24 22:01:51 1011.500 7.3 64 0.9         184.40
2019-Mar-24 23:01:52 1011.500 6.6 68 1.1         184.40

Temperatura Máxima:16°    Temperatura Mínima:
Presión Máxima:1012.300 Hpa    Presión Mínima:1010.500 Hpa


Volver